CTV935 WIBB-WIDD
Flight info
| Callsign | CTV935 |
|---|---|
| Flight time | 0h 40m |
| Altitude | 27000 |
| Route | TUSNU |
| Aircraft | A320/M-SDE3FGHIRWY/LB1 |
Departure
| Time | 2026-04-15 05:35 |
|---|---|
| Airport | Sultan Syarif Kasim II International Airport / Roesmin Nurjadin AFB (WIBB) |
Arrival
| Time | 2026-04-15 06:16 |
|---|---|
| Airport | Hang Nadim International Airport (WIDD) |
| Time | Latitude | Longitude | Altitude | Speed | Heading |
|---|---|---|---|---|---|
| 2026-04-15 05:14 | 0.46432 | 101.44690 | 147 ft | 0 kts | 91° |
| 2026-04-15 05:27 | 0.46432 | 101.44689 | 146 ft | 2 kts | 91° |
| 2026-04-15 05:28 | 0.46432 | 101.44663 | 147 ft | 4 kts | 91° |
| 2026-04-15 05:28 | 0.46433 | 101.44637 | 146 ft | 4 kts | 90° |
| 2026-04-15 05:28 | 0.46429 | 101.44611 | 146 ft | 4 kts | 60° |
| 2026-04-15 05:28 | 0.46411 | 101.44593 | 146 ft | 4 kts | 24° |
| 2026-04-15 05:29 | 0.46392 | 101.44588 | 146 ft | 3 kts | 1° |
| 2026-04-15 05:29 | 0.46365 | 101.44588 | 146 ft | 4 kts | 1° |
| 2026-04-15 05:29 | 0.46349 | 101.44588 | 145 ft | 0 kts | 1° |
| 2026-04-15 05:32 | 0.46370 | 101.44575 | 146 ft | 7 kts | 306° |
| 2026-04-15 05:32 | 0.46385 | 101.44484 | 145 ft | 21 kts | 261° |
| 2026-04-15 05:33 | 0.46320 | 101.44459 | 144 ft | 15 kts | 181° |
| 2026-04-15 05:33 | 0.46168 | 101.44454 | 139 ft | 27 kts | 182° |
| 2026-04-15 05:33 | 0.45972 | 101.44447 | 135 ft | 29 kts | 182° |
| 2026-04-15 05:33 | 0.45770 | 101.44441 | 133 ft | 30 kts | 181° |
| 2026-04-15 05:34 | 0.45563 | 101.44435 | 131 ft | 30 kts | 181° |
| 2026-04-15 05:34 | 0.45357 | 101.44431 | 129 ft | 29 kts | 181° |
| 2026-04-15 05:34 | 0.45157 | 101.44450 | 131 ft | 29 kts | 167° |
| 2026-04-15 05:34 | 0.45108 | 101.44425 | 132 ft | 3 kts | 340° |
| 2026-04-15 05:35 | 0.45185 | 101.44427 | 131 ft | 38 kts | 1° |
| 2026-04-15 05:35 | 0.45720 | 101.44438 | 132 ft | 112 kts | 1° |
| 2026-04-15 05:35 | 0.46691 | 101.44467 | 166 ft | 163 kts | 1° |
| 2026-04-15 05:35 | 0.47774 | 101.44508 | 888 ft | 146 kts | 2° |
| 2026-04-15 05:36 | 0.48755 | 101.44556 | 1468 ft | 150 kts | 8° |
| 2026-04-15 05:36 | 0.49822 | 101.44890 | 1735 ft | 172 kts | 28° |
| 2026-04-15 05:36 | 0.50782 | 101.45701 | 1979 ft | 191 kts | 53° |
| 2026-04-15 05:36 | 0.51539 | 101.46813 | 2419 ft | 195 kts | 56° |
| 2026-04-15 05:37 | 0.52312 | 101.47937 | 2914 ft | 197 kts | 55° |
| 2026-04-15 05:37 | 0.53091 | 101.49062 | 3395 ft | 198 kts | 55° |
| 2026-04-15 05:37 | 0.53890 | 101.50216 | 3748 ft | 210 kts | 55° |
| 2026-04-15 05:37 | 0.54776 | 101.51494 | 3955 ft | 237 kts | 55° |
| 2026-04-15 05:38 | 0.55761 | 101.52915 | 4332 ft | 261 kts | 55° |
| 2026-04-15 05:38 | 0.56821 | 101.54449 | 4953 ft | 273 kts | 55° |
| 2026-04-15 05:38 | 0.57909 | 101.56027 | 5733 ft | 278 kts | 56° |
| 2026-04-15 05:38 | 0.59019 | 101.57635 | 6528 ft | 283 kts | 56° |
| 2026-04-15 05:39 | 0.60146 | 101.59268 | 7296 ft | 288 kts | 55° |
| 2026-04-15 05:39 | 0.61288 | 101.60925 | 8068 ft | 292 kts | 55° |
| 2026-04-15 05:39 | 0.62450 | 101.62609 | 8840 ft | 296 kts | 55° |
| 2026-04-15 05:39 | 0.63454 | 101.64419 | 9577 ft | 301 kts | 74° |
| 2026-04-15 05:40 | 0.63602 | 101.66499 | 10252 ft | 304 kts | 98° |
| 2026-04-15 05:40 | 0.63285 | 101.68599 | 10971 ft | 306 kts | 100° |
| 2026-04-15 05:40 | 0.62947 | 101.70710 | 11703 ft | 309 kts | 100° |
| 2026-04-15 05:40 | 0.62601 | 101.72846 | 12426 ft | 312 kts | 100° |
| 2026-04-15 05:41 | 0.62252 | 101.75001 | 13144 ft | 316 kts | 100° |
| 2026-04-15 05:41 | 0.61903 | 101.77181 | 13838 ft | 319 kts | 99° |
| 2026-04-15 05:41 | 0.61557 | 101.79381 | 14459 ft | 322 kts | 99° |
| 2026-04-15 05:41 | 0.61209 | 101.81603 | 15087 ft | 324 kts | 99° |
| 2026-04-15 05:42 | 0.60862 | 101.83835 | 15718 ft | 326 kts | 99° |
| 2026-04-15 05:42 | 0.60514 | 101.86084 | 16351 ft | 328 kts | 99° |
| 2026-04-15 05:42 | 0.60165 | 101.88344 | 16975 ft | 331 kts | 98° |
| 2026-04-15 05:42 | 0.59805 | 101.90685 | 17115 ft | 350 kts | 98° |
| 2026-04-15 05:43 | 0.59572 | 101.93129 | 17243 ft | 367 kts | 90° |
| 2026-04-15 05:43 | 0.59784 | 101.95748 | 17429 ft | 381 kts | 82° |
| 2026-04-15 05:43 | 0.59958 | 101.98376 | 17845 ft | 387 kts | 90° |
| 2026-04-15 05:43 | 0.59836 | 102.01074 | 18345 ft | 390 kts | 94° |
| 2026-04-15 05:44 | 0.59563 | 102.03783 | 18815 ft | 393 kts | 96° |
| 2026-04-15 05:44 | 0.59232 | 102.06504 | 19289 ft | 396 kts | 97° |
| 2026-04-15 05:44 | 0.58907 | 102.09246 | 19779 ft | 398 kts | 96° |
| 2026-04-15 05:44 | 0.58615 | 102.12008 | 20255 ft | 401 kts | 95° |
| 2026-04-15 05:45 | 0.58358 | 102.14788 | 20719 ft | 404 kts | 95° |
| 2026-04-15 05:45 | 0.58130 | 102.17596 | 21198 ft | 407 kts | 94° |
| 2026-04-15 05:45 | 0.57914 | 102.20431 | 21665 ft | 410 kts | 94° |
| 2026-04-15 05:45 | 0.57698 | 102.23285 | 22112 ft | 413 kts | 94° |
| 2026-04-15 05:46 | 0.57477 | 102.26154 | 22562 ft | 416 kts | 94° |
| 2026-04-15 05:46 | 0.57249 | 102.29042 | 22993 ft | 419 kts | 94° |
| 2026-04-15 05:46 | 0.57017 | 102.31955 | 23410 ft | 422 kts | 94° |
| 2026-04-15 05:46 | 0.56781 | 102.34875 | 23779 ft | 424 kts | 95° |
| 2026-04-15 05:47 | 0.56555 | 102.37824 | 24110 ft | 426 kts | 94° |
| 2026-04-15 05:47 | 0.56365 | 102.40790 | 24452 ft | 429 kts | 93° |
| 2026-04-15 05:47 | 0.56199 | 102.43768 | 24809 ft | 430 kts | 93° |
| 2026-04-15 05:47 | 0.56040 | 102.46762 | 25134 ft | 432 kts | 93° |
| 2026-04-15 05:48 | 0.55878 | 102.49771 | 25458 ft | 434 kts | 93° |
| 2026-04-15 05:48 | 0.55709 | 102.52789 | 25782 ft | 436 kts | 93° |
| 2026-04-15 05:48 | 0.55531 | 102.55820 | 26083 ft | 438 kts | 94° |
| 2026-04-15 05:48 | 0.55347 | 102.58874 | 26393 ft | 440 kts | 94° |
| 2026-04-15 05:49 | 0.55159 | 102.61932 | 26691 ft | 442 kts | 94° |
| 2026-04-15 05:49 | 0.54973 | 102.65000 | 26864 ft | 444 kts | 94° |
| 2026-04-15 05:49 | 0.54789 | 102.68059 | 26901 ft | 437 kts | 94° |
| 2026-04-15 05:49 | 0.54608 | 102.71075 | 26900 ft | 435 kts | 94° |
| 2026-04-15 05:50 | 0.54427 | 102.74089 | 26898 ft | 434 kts | 94° |
| 2026-04-15 05:50 | 0.54248 | 102.77097 | 26898 ft | 434 kts | 94° |
| 2026-04-15 05:50 | 0.53911 | 102.82711 | 26903 ft | 433 kts | 94° |
| 2026-04-15 05:51 | 0.53746 | 102.85521 | 26902 ft | 427 kts | 93° |
| 2026-04-15 05:51 | 0.53573 | 102.88501 | 26901 ft | 431 kts | 93° |
| 2026-04-15 05:51 | 0.53398 | 102.91500 | 26901 ft | 432 kts | 94° |
| 2026-04-15 05:51 | 0.53221 | 102.94495 | 26904 ft | 433 kts | 94° |
| 2026-04-15 05:52 | 0.53042 | 102.97502 | 26905 ft | 433 kts | 94° |
| 2026-04-15 05:52 | 0.52860 | 103.00513 | 26492 ft | 433 kts | 94° |
| 2026-04-15 05:52 | 0.52676 | 103.03504 | 25983 ft | 429 kts | 94° |
| 2026-04-15 05:52 | 0.52499 | 103.06427 | 25466 ft | 425 kts | 93° |
| 2026-04-15 05:53 | 0.52324 | 103.09399 | 24967 ft | 421 kts | 93° |
| 2026-04-15 05:53 | 0.52156 | 103.12272 | 24483 ft | 418 kts | 93° |
| 2026-04-15 05:53 | 0.51986 | 103.15160 | 24003 ft | 415 kts | 93° |
| 2026-04-15 05:53 | 0.51813 | 103.18024 | 23529 ft | 411 kts | 93° |
| 2026-04-15 05:54 | 0.51641 | 103.20868 | 22974 ft | 409 kts | 93° |
| 2026-04-15 05:54 | 0.51469 | 103.23697 | 22411 ft | 406 kts | 93° |
| 2026-04-15 05:54 | 0.51300 | 103.26503 | 21858 ft | 404 kts | 93° |
| 2026-04-15 05:54 | 0.51134 | 103.29296 | 21316 ft | 402 kts | 93° |
| 2026-04-15 05:55 | 0.50969 | 103.32083 | 20782 ft | 400 kts | 93° |
| 2026-04-15 05:55 | 0.50807 | 103.34850 | 20259 ft | 398 kts | 93° |
| 2026-04-15 05:55 | 0.50646 | 103.37600 | 19746 ft | 396 kts | 93° |
| 2026-04-15 05:55 | 0.50485 | 103.40332 | 19241 ft | 394 kts | 93° |
| 2026-04-15 05:56 | 0.50321 | 103.43065 | 18741 ft | 392 kts | 93° |
| 2026-04-15 05:56 | 0.50158 | 103.45781 | 18251 ft | 390 kts | 93° |
| 2026-04-15 05:56 | 0.49993 | 103.48482 | 17701 ft | 389 kts | 94° |
| 2026-04-15 05:56 | 0.49829 | 103.51176 | 17151 ft | 387 kts | 94° |
| 2026-04-15 05:57 | 0.49668 | 103.53851 | 16608 ft | 385 kts | 94° |
| 2026-04-15 05:57 | 0.49508 | 103.56520 | 16072 ft | 384 kts | 94° |
| 2026-04-15 05:57 | 0.49351 | 103.59179 | 15546 ft | 382 kts | 94° |
| 2026-04-15 05:57 | 0.49195 | 103.61828 | 15028 ft | 381 kts | 94° |
| 2026-04-15 05:58 | 0.49038 | 103.64464 | 14518 ft | 379 kts | 94° |
| 2026-04-15 05:58 | 0.48881 | 103.67087 | 14017 ft | 378 kts | 94° |
| 2026-04-15 05:58 | 0.48726 | 103.69698 | 13505 ft | 376 kts | 94° |
| 2026-04-15 05:58 | 0.48573 | 103.72294 | 12938 ft | 374 kts | 94° |
| 2026-04-15 05:59 | 0.48419 | 103.74845 | 12408 ft | 371 kts | 94° |
| 2026-04-15 05:59 | 0.48357 | 103.77418 | 11867 ft | 369 kts | 85° |
| 2026-04-15 05:59 | 0.48964 | 103.79897 | 11341 ft | 368 kts | 67° |
| 2026-04-15 05:59 | 0.50308 | 103.82054 | 10820 ft | 366 kts | 50° |
| 2026-04-15 06:00 | 0.52019 | 103.83930 | 10311 ft | 363 kts | 48° |
| 2026-04-15 06:00 | 0.53722 | 103.85762 | 9793 ft | 354 kts | 48° |
| 2026-04-15 06:00 | 0.55362 | 103.87516 | 9246 ft | 338 kts | 48° |
| 2026-04-15 06:00 | 0.56919 | 103.89185 | 8992 ft | 315 kts | 48° |
| 2026-04-15 06:01 | 0.58364 | 103.90740 | 8907 ft | 301 kts | 49° |
| 2026-04-15 06:01 | 0.59774 | 103.92263 | 8841 ft | 299 kts | 49° |
| 2026-04-15 06:01 | 0.61189 | 103.93795 | 8758 ft | 298 kts | 48° |
| 2026-04-15 06:01 | 0.62595 | 103.95319 | 8700 ft | 298 kts | 49° |
| 2026-04-15 06:02 | 0.64004 | 103.96846 | 8621 ft | 297 kts | 49° |
| 2026-04-15 06:02 | 0.65406 | 103.98365 | 8537 ft | 297 kts | 48° |
| 2026-04-15 06:02 | 0.66777 | 103.99849 | 8468 ft | 297 kts | 49° |
| 2026-04-15 06:02 | 0.68207 | 104.01392 | 8392 ft | 296 kts | 48° |
| 2026-04-15 06:03 | 0.69605 | 104.02901 | 8320 ft | 296 kts | 49° |
| 2026-04-15 06:03 | 0.71004 | 104.04412 | 8243 ft | 296 kts | 48° |
| 2026-04-15 06:03 | 0.71929 | 104.05411 | 8189 ft | 296 kts | 48° |
| 2026-04-15 06:03 | 0.73326 | 104.06920 | 8062 ft | 295 kts | 49° |
| 2026-04-15 06:04 | 0.74716 | 104.08421 | 8017 ft | 294 kts | 48° |
| 2026-04-15 06:04 | 0.76111 | 104.09929 | 8020 ft | 295 kts | 49° |
| 2026-04-15 06:04 | 0.77532 | 104.11402 | 8021 ft | 296 kts | 41° |
| 2026-04-15 06:04 | 0.79250 | 104.12536 | 8021 ft | 297 kts | 25° |
| 2026-04-15 06:05 | 0.81199 | 104.13208 | 8023 ft | 297 kts | 16° |
| 2026-04-15 06:05 | 0.83190 | 104.13780 | 8018 ft | 298 kts | 16° |
| 2026-04-15 06:05 | 0.85171 | 104.14352 | 7996 ft | 298 kts | 16° |
| 2026-04-15 06:05 | 0.87170 | 104.14933 | 7769 ft | 297 kts | 16° |
| 2026-04-15 06:06 | 0.89146 | 104.15507 | 7556 ft | 296 kts | 16° |
| 2026-04-15 06:06 | 0.91119 | 104.16078 | 7340 ft | 295 kts | 16° |
| 2026-04-15 06:06 | 0.93079 | 104.16645 | 7122 ft | 294 kts | 16° |
| 2026-04-15 06:06 | 0.95044 | 104.17209 | 6914 ft | 293 kts | 16° |
| 2026-04-15 06:07 | 0.97001 | 104.17770 | 6710 ft | 292 kts | 16° |
| 2026-04-15 06:07 | 0.98952 | 104.18330 | 6522 ft | 291 kts | 16° |
| 2026-04-15 06:07 | 1.00893 | 104.18891 | 6339 ft | 291 kts | 16° |
| 2026-04-15 06:07 | 1.02866 | 104.19463 | 6137 ft | 290 kts | 16° |
| 2026-04-15 06:08 | 1.04736 | 104.20197 | 5944 ft | 288 kts | 31° |
| 2026-04-15 06:08 | 1.06341 | 104.21385 | 5741 ft | 287 kts | 41° |
| 2026-04-15 06:08 | 1.07833 | 104.22664 | 5559 ft | 286 kts | 41° |
| 2026-04-15 06:08 | 1.09347 | 104.23955 | 5364 ft | 285 kts | 41° |
| 2026-04-15 06:09 | 1.10840 | 104.25228 | 5171 ft | 285 kts | 41° |
| 2026-04-15 06:09 | 1.12363 | 104.26526 | 4979 ft | 284 kts | 40° |
| 2026-04-15 06:09 | 1.13864 | 104.27806 | 4785 ft | 282 kts | 40° |
| 2026-04-15 06:09 | 1.15341 | 104.29063 | 4512 ft | 275 kts | 40° |
| 2026-04-15 06:10 | 1.16777 | 104.30286 | 4246 ft | 267 kts | 40° |
| 2026-04-15 06:10 | 1.18267 | 104.31337 | 4002 ft | 259 kts | 19° |
| 2026-04-15 06:10 | 1.19991 | 104.31456 | 3756 ft | 247 kts | 341° |
| 2026-04-15 06:10 | 1.21368 | 104.30561 | 3515 ft | 234 kts | 310° |
| 2026-04-15 06:11 | 1.22440 | 104.29361 | 3280 ft | 229 kts | 309° |
| 2026-04-15 06:11 | 1.23486 | 104.28174 | 3039 ft | 226 kts | 309° |
| 2026-04-15 06:11 | 1.24525 | 104.26996 | 2794 ft | 225 kts | 309° |
| 2026-04-15 06:11 | 1.25402 | 104.25732 | 2549 ft | 219 kts | 286° |
| 2026-04-15 06:12 | 1.25472 | 104.24259 | 2428 ft | 214 kts | 252° |
| 2026-04-15 06:12 | 1.24712 | 104.23010 | 2316 ft | 212 kts | 219° |
| 2026-04-15 06:12 | 1.23540 | 104.22124 | 2176 ft | 209 kts | 218° |
| 2026-04-15 06:12 | 1.22472 | 104.21202 | 2035 ft | 198 kts | 221° |
| 2026-04-15 06:13 | 1.21495 | 104.20310 | 1941 ft | 178 kts | 222° |
| 2026-04-15 06:13 | 1.20636 | 104.19520 | 1826 ft | 156 kts | 221° |
| 2026-04-15 06:13 | 1.19877 | 104.18827 | 1714 ft | 143 kts | 220° |
| 2026-04-15 06:13 | 1.19158 | 104.18176 | 1543 ft | 137 kts | 221° |
| 2026-04-15 06:14 | 1.18454 | 104.17542 | 1370 ft | 135 kts | 220° |
| 2026-04-15 06:14 | 1.17753 | 104.16914 | 1198 ft | 135 kts | 221° |
| 2026-04-15 06:14 | 1.17052 | 104.16286 | 1013 ft | 134 kts | 221° |
| 2026-04-15 06:14 | 1.16370 | 104.15648 | 881 ft | 135 kts | 221° |
| 2026-04-15 06:15 | 1.15669 | 104.15020 | 713 ft | 136 kts | 216° |
| 2026-04-15 06:15 | 1.14940 | 104.14397 | 563 ft | 140 kts | 219° |
| 2026-04-15 06:15 | 1.14204 | 104.13735 | 351 ft | 143 kts | 219° |
| 2026-04-15 06:15 | 1.13463 | 104.13079 | 198 ft | 143 kts | 218° |
| 2026-04-15 06:16 | 1.12782 | 104.12485 | 136 ft | 116 kts | 221° |
| 2026-04-15 06:16 | 1.12295 | 104.12060 | 137 ft | 72 kts | 220° |
| 2026-04-15 06:16 | 1.12019 | 104.11814 | 136 ft | 28 kts | 221° |
| 2026-04-15 06:16 | 1.11997 | 104.11703 | 137 ft | 8 kts | 312° |
| 2026-04-15 06:17 | 1.12035 | 104.11661 | 137 ft | 0 kts | 311° |
| 2026-04-15 06:17 | 1.12044 | 104.11650 | 137 ft | 2 kts | 311° |
| 2026-04-15 06:17 | 1.12047 | 104.11648 | 137 ft | 0 kts | 311° |
| 2026-04-15 06:19 | 1.12048 | 104.11647 | 137 ft | 2 kts | 311° |
| 2026-04-15 06:20 | 1.12069 | 104.11619 | 137 ft | 0 kts | 307° |
| 2026-04-15 06:25 | 1.12078 | 104.11607 | 137 ft | 4 kts | 307° |
| 2026-04-15 06:25 | 1.12099 | 104.11588 | 137 ft | 3 kts | 330° |
| 2026-04-15 06:25 | 1.12152 | 104.11609 | 137 ft | 14 kts | 46° |
| 2026-04-15 06:26 | 1.12183 | 104.11639 | 137 ft | 0 kts | 43° |
| 2026-04-15 06:26 | 1.12204 | 104.11650 | 137 ft | 8 kts | 8° |
| 2026-04-15 06:26 | 1.12242 | 104.11625 | 137 ft | 4 kts | 310° |
| 2026-04-15 06:27 | 1.12254 | 104.11611 | 137 ft | 2 kts | 311° |
| 2026-04-15 06:27 | 1.12260 | 104.11604 | 137 ft | 0 kts | 312° |
| 2026-04-15 06:27 | 1.12267 | 104.11596 | 137 ft | 1 kts | 312° |
| 2026-04-15 06:27 | 1.12270 | 104.11593 | 137 ft | 0 kts | 311° |